sensor_id;sensor_type;location;lat;lon;timestamp;P1;durP1;ratioP1;P2;durP2;ratioP2
46377;SDS011;32083;47.360;9.650;2022-11-22T05:05:55;6.18;;;2.10;;
46377;SDS011;32083;47.360;9.650;2022-11-22T05:08:24;6.28;;;2.28;;
46377;SDS011;32083;47.360;9.650;2022-11-22T05:10:50;5.45;;;1.73;;
46377;SDS011;32083;47.360;9.650;2022-11-22T05:13:26;6.55;;;2.28;;
46377;SDS011;32083;47.360;9.650;2022-11-22T05:15:57;9.35;;;2.03;;
46377;SDS011;32083;47.360;9.650;2022-11-22T05:18:25;10.50;;;2.42;;
46377;SDS011;32083;47.360;9.650;2022-11-22T05:20:51;5.53;;;1.88;;
46377;SDS011;32083;47.360;9.650;2022-11-22T05:23:18;3.10;;;2.13;;
46377;SDS011;32083;47.360;9.650;2022-11-22T05:26:04;4.97;;;2.22;;
46377;SDS011;32083;47.360;9.650;2022-11-22T05:28:31;4.35;;;1.60;;
46377;SDS011;32083;47.360;9.650;2022-11-22T05:30:58;5.80;;;1.73;;
46377;SDS011;32083;47.360;9.650;2022-11-22T05:33:29;6.60;;;2.35;;
46377;SDS011;32083;47.360;9.650;2022-11-22T05:35:56;5.28;;;1.90;;
46377;SDS011;32083;47.360;9.650;2022-11-22T05:38:24;6.35;;;2.83;;
46377;SDS011;32083;47.360;9.650;2022-11-22T05:40:51;6.45;;;1.90;;
46377;SDS011;32083;47.360;9.650;2022-11-22T05:43:16;4.15;;;1.73;;
46377;SDS011;32083;47.360;9.650;2022-11-22T05:45:42;5.35;;;2.17;;
46377;SDS011;32083;47.360;9.650;2022-11-22T05:48:08;4.20;;;1.75;;
46377;SDS011;32083;47.360;9.650;2022-11-22T05:50:34;6.32;;;1.90;;
46377;SDS011;32083;47.360;9.650;2022-11-22T05:53:01;4.05;;;1.60;;
46377;SDS011;32083;47.360;9.650;2022-11-22T05:55:27;5.18;;;2.72;;
46377;SDS011;32083;47.360;9.650;2022-11-22T05:57:54;6.20;;;3.00;;
46377;SDS011;32083;47.360;9.650;2022-11-22T06:00:23;4.90;;;2.28;;
46377;SDS011;32083;47.360;9.650;2022-11-22T06:02:49;6.90;;;2.47;;
46377;SDS011;32083;47.360;9.650;2022-11-22T06:05:15;8.65;;;3.08;;
46377;SDS011;32083;47.360;9.650;2022-11-22T06:07:41;6.00;;;2.30;;
46377;SDS011;32083;47.360;9.650;2022-11-22T06:10:07;5.88;;;2.95;;
46377;SDS011;32083;47.360;9.650;2022-11-22T06:12:34;5.13;;;2.13;;
46377;SDS011;32083;47.360;9.650;2022-11-22T06:15:00;5.68;;;2.40;;
46377;SDS011;32083;47.360;9.650;2022-11-22T06:17:25;9.32;;;2.28;;
46377;SDS011;32083;47.360;9.650;2022-11-22T06:19:51;7.15;;;2.38;;
46377;SDS011;32083;47.360;9.650;2022-11-22T06:22:17;4.88;;;2.42;;
46377;SDS011;32083;47.360;9.650;2022-11-22T06:24:43;7.00;;;3.30;;
46377;SDS011;32083;47.360;9.650;2022-11-22T06:27:09;7.43;;;3.03;;
46377;SDS011;32083;47.360;9.650;2022-11-22T06:29:35;7.13;;;3.15;;
46377;SDS011;32083;47.360;9.650;2022-11-22T06:32:01;4.57;;;3.80;;
46377;SDS011;32083;47.360;9.650;2022-11-22T06:34:27;6.22;;;3.30;;
46377;SDS011;32083;47.360;9.650;2022-11-22T06:36:53;6.60;;;3.22;;
46377;SDS011;32083;47.360;9.650;2022-11-22T06:39:19;7.03;;;2.97;;
46377;SDS011;32083;47.360;9.650;2022-11-22T06:41:45;7.78;;;2.88;;
46377;SDS011;32083;47.360;9.650;2022-11-22T06:44:11;5.50;;;2.83;;
46377;SDS011;32083;47.360;9.650;2022-11-22T06:46:37;6.53;;;3.33;;
46377;SDS011;32083;47.360;9.650;2022-11-22T06:49:03;7.90;;;3.97;;
46377;SDS011;32083;47.360;9.650;2022-11-22T06:51:29;7.63;;;4.70;;
46377;SDS011;32083;47.360;9.650;2022-11-22T06:53:57;7.00;;;5.22;;
46377;SDS011;32083;47.360;9.650;2022-11-22T06:56:36;9.52;;;4.78;;
46377;SDS011;32083;47.360;9.650;2022-11-22T06:59:03;5.28;;;3.75;;
46377;SDS011;32083;47.360;9.650;2022-11-22T07:01:30;6.78;;;2.55;;
46377;SDS011;32083;47.360;9.650;2022-11-22T07:03:57;6.10;;;3.03;;
46377;SDS011;32083;47.360;9.650;2022-11-22T07:06:25;7.57;;;2.80;;
46377;SDS011;32083;47.360;9.650;2022-11-22T07:08:57;8.43;;;3.28;;
46377;SDS011;32083;47.360;9.650;2022-11-22T07:11:25;6.18;;;3.47;;
46377;SDS011;32083;47.360;9.650;2022-11-22T07:13:53;6.88;;;3.55;;
46377;SDS011;32083;47.360;9.650;2022-11-22T07:16:20;8.95;;;3.58;;
46377;SDS011;32083;47.360;9.650;2022-11-22T07:18:47;8.50;;;3.25;;
46377;SDS011;32083;47.360;9.650;2022-11-22T07:21:17;4.93;;;2.25;;
46377;SDS011;32083;47.360;9.650;2022-11-22T07:23:48;6.00;;;2.88;;
46377;SDS011;32083;47.360;9.650;2022-11-22T07:26:20;3.78;;;2.33;;
46377;SDS011;32083;47.360;9.650;2022-11-22T07:28:47;5.45;;;2.70;;
46377;SDS011;32083;47.360;9.650;2022-11-22T07:31:14;6.45;;;2.47;;
46377;SDS011;32083;47.360;9.650;2022-11-22T07:33:42;6.95;;;3.38;;
46377;SDS011;32083;47.360;9.650;2022-11-22T07:36:12;8.45;;;3.53;;
46377;SDS011;32083;47.360;9.650;2022-11-22T07:38:40;4.72;;;3.45;;
46377;SDS011;32083;47.360;9.650;2022-11-22T07:41:06;5.38;;;3.03;;
46377;SDS011;32083;47.360;9.650;2022-11-22T07:43:33;5.97;;;2.72;;
46377;SDS011;32083;47.360;9.650;2022-11-22T07:46:00;7.50;;;3.03;;
46377;SDS011;32083;47.360;9.650;2022-11-22T07:48:27;5.93;;;3.17;;
46377;SDS011;32083;47.360;9.650;2022-11-22T07:50:53;6.28;;;2.40;;
46377;SDS011;32083;47.360;9.650;2022-11-22T07:53:19;7.20;;;3.22;;
46377;SDS011;32083;47.360;9.650;2022-11-22T07:55:45;4.13;;;2.47;;
46377;SDS011;32083;47.360;9.650;2022-11-22T07:58:11;6.13;;;3.72;;
46377;SDS011;32083;47.360;9.650;2022-11-22T08:00:37;5.60;;;2.35;;
46377;SDS011;32083;47.360;9.650;2022-11-22T08:03:05;8.18;;;3.47;;
46377;SDS011;32083;47.360;9.650;2022-11-22T08:05:33;6.53;;;2.25;;
46377;SDS011;32083;47.360;9.650;2022-11-22T08:07:59;6.57;;;2.05;;
46377;SDS011;32083;47.360;9.650;2022-11-22T08:10:25;6.65;;;2.45;;
46377;SDS011;32083;47.360;9.650;2022-11-22T08:12:50;5.13;;;1.92;;
46377;SDS011;32083;47.360;9.650;2022-11-22T08:15:16;4.20;;;2.00;;
46377;SDS011;32083;47.360;9.650;2022-11-22T08:17:43;4.47;;;2.03;;
46377;SDS011;32083;47.360;9.650;2022-11-22T08:20:09;7.15;;;1.70;;
46377;SDS011;32083;47.360;9.650;2022-11-22T08:22:36;7.45;;;4.10;;
46377;SDS011;32083;47.360;9.650;2022-11-22T08:25:03;6.78;;;3.65;;
46377;SDS011;32083;47.360;9.650;2022-11-22T08:27:31;1.85;;;1.20;;
46377;SDS011;32083;47.360;9.650;2022-11-22T08:29:57;3.45;;;1.00;;
46377;SDS011;32083;47.360;9.650;2022-11-22T08:32:23;4.50;;;2.08;;
46377;SDS011;32083;47.360;9.650;2022-11-22T08:34:49;6.57;;;2.70;;
46377;SDS011;32083;47.360;9.650;2022-11-22T08:37:15;3.97;;;1.92;;
46377;SDS011;32083;47.360;9.650;2022-11-22T08:39:41;4.45;;;1.80;;
46377;SDS011;32083;47.360;9.650;2022-11-22T08:42:07;4.38;;;2.13;;
46377;SDS011;32083;47.360;9.650;2022-11-22T08:44:33;7.03;;;2.28;;
46377;SDS011;32083;47.360;9.650;2022-11-22T08:46:59;3.88;;;2.10;;
46377;SDS011;32083;47.360;9.650;2022-11-22T08:49:25;2.38;;;1.42;;
46377;SDS011;32083;47.360;9.650;2022-11-22T08:51:51;3.67;;;1.60;;
46377;SDS011;32083;47.360;9.650;2022-11-22T08:54:17;2.80;;;1.75;;
46377;SDS011;32083;47.360;9.650;2022-11-22T08:56:43;3.67;;;1.30;;
46377;SDS011;32083;47.360;9.650;2022-11-22T08:59:09;1.08;;;0.52;;
46377;SDS011;32083;47.360;9.650;2022-11-22T09:01:34;2.08;;;0.73;;
46377;SDS011;32083;47.360;9.650;2022-11-22T09:04:00;4.03;;;1.30;;
46377;SDS011;32083;47.360;9.650;2022-11-22T09:06:26;2.05;;;0.80;;
46377;SDS011;32083;47.360;9.650;2022-11-22T09:08:52;2.65;;;0.80;;
46377;SDS011;32083;47.360;9.650;2022-11-22T09:11:18;6.32;;;2.40;;
46377;SDS011;32083;47.360;9.650;2022-11-22T09:13:45;6.63;;;3.38;;
46377;SDS011;32083;47.360;9.650;2022-11-22T09:16:12;5.47;;;4.15;;
46377;SDS011;32083;47.360;9.650;2022-11-22T09:18:47;4.95;;;2.97;;
46377;SDS011;32083;47.360;9.650;2022-11-22T09:21:14;4.93;;;4.28;;
46377;SDS011;32083;47.360;9.650;2022-11-22T09:23:42;5.60;;;3.67;;
46377;SDS011;32083;47.360;9.650;2022-11-22T09:26:11;5.05;;;4.20;;
46377;SDS011;32083;47.360;9.650;2022-11-22T09:28:38;9.52;;;4.75;;
46377;SDS011;32083;47.360;9.650;2022-11-22T09:31:15;4.82;;;3.70;;
46377;SDS011;32083;47.360;9.650;2022-11-22T09:33:43;6.32;;;2.83;;
46377;SDS011;32083;47.360;9.650;2022-11-22T09:36:12;4.80;;;2.42;;
46377;SDS011;32083;47.360;9.650;2022-11-22T09:38:39;3.08;;;2.03;;
46377;SDS011;32083;47.360;9.650;2022-11-22T09:51:41;4.00;;;2.72;;
46377;SDS011;32083;47.360;9.650;2022-11-22T09:54:14;4.13;;;2.42;;
46377;SDS011;32083;47.360;9.650;2022-11-22T09:56:45;6.65;;;4.43;;
46377;SDS011;32083;47.360;9.650;2022-11-22T09:59:15;11.07;;;6.95;;
46377;SDS011;32083;47.360;9.650;2022-11-22T10:04:18;12.57;;;7.40;;
46377;SDS011;32083;47.360;9.650;2022-11-22T10:07:03;4.97;;;2.55;;
46377;SDS011;32083;47.360;9.650;2022-11-22T10:15:06;3.00;;;2.35;;
46377;SDS011;32083;47.360;9.650;2022-11-22T10:20:22;3.90;;;1.80;;
46377;SDS011;32083;47.360;9.650;2022-11-22T10:22:50;5.05;;;1.90;;
46377;SDS011;32083;47.360;9.650;2022-11-22T10:27:51;5.35;;;2.08;;
46377;SDS011;32083;47.360;9.650;2022-11-22T10:30:21;4.10;;;2.13;;
46377;SDS011;32083;47.360;9.650;2022-11-22T10:32:57;5.32;;;2.38;;
46377;SDS011;32083;47.360;9.650;2022-11-22T10:49:43;2.55;;;2.00;;
46377;SDS011;32083;47.360;9.650;2022-11-22T10:54:55;4.22;;;1.75;;
46377;SDS011;32083;47.360;9.650;2022-11-22T11:00:29;2.50;;;1.65;;
46377;SDS011;32083;47.360;9.650;2022-11-22T11:03:03;4.13;;;2.20;;
46377;SDS011;32083;47.360;9.650;2022-11-22T11:05:44;8.25;;;2.58;;
46377;SDS011;32083;47.360;9.650;2022-11-22T11:08:35;3.38;;;1.55;;
46377;SDS011;32083;47.360;9.650;2022-11-22T11:11:05;5.78;;;1.85;;
46377;SDS011;32083;47.360;9.650;2022-11-22T11:13:39;5.90;;;2.80;;
46377;SDS011;32083;47.360;9.650;2022-11-22T11:16:11;6.78;;;3.10;;
46377;SDS011;32083;47.360;9.650;2022-11-22T11:21:43;4.60;;;2.17;;
46377;SDS011;32083;47.360;9.650;2022-11-22T11:24:13;3.85;;;2.08;;
46377;SDS011;32083;47.360;9.650;2022-11-22T11:26:50;6.47;;;2.05;;
46377;SDS011;32083;47.360;9.650;2022-11-22T11:34:24;6.10;;;2.40;;
46377;SDS011;32083;47.360;9.650;2022-11-22T11:36:54;4.30;;;2.42;;
46377;SDS011;32083;47.360;9.650;2022-11-22T11:39:22;4.60;;;2.08;;
46377;SDS011;32083;47.360;9.650;2022-11-22T11:41:53;6.63;;;2.38;;
46377;SDS011;32083;47.360;9.650;2022-11-22T11:44:32;3.53;;;1.83;;
46377;SDS011;32083;47.360;9.650;2022-11-22T11:47:01;5.50;;;1.75;;
46377;SDS011;32083;47.360;9.650;2022-11-22T11:49:32;3.47;;;1.50;;
46377;SDS011;32083;47.360;9.650;2022-11-22T11:52:00;6.32;;;2.03;;
46377;SDS011;32083;47.360;9.650;2022-11-22T11:57:10;5.50;;;1.83;;
46377;SDS011;32083;47.360;9.650;2022-11-22T12:04:49;6.78;;;1.55;;
46377;SDS011;32083;47.360;9.650;2022-11-22T12:09:59;2.78;;;1.35;;
46377;SDS011;32083;47.360;9.650;2022-11-22T12:12:43;3.40;;;1.25;;
46377;SDS011;32083;47.360;9.650;2022-11-22T12:18:51;3.67;;;1.60;;
46377;SDS011;32083;47.360;9.650;2022-11-22T12:26:35;6.50;;;2.03;;
46377;SDS011;32083;47.360;9.650;2022-11-22T12:29:02;4.30;;;1.52;;
46377;SDS011;32083;47.360;9.650;2022-11-22T12:31:30;4.20;;;1.65;;
46377;SDS011;32083;47.360;9.650;2022-11-22T12:34:05;3.20;;;1.30;;
46377;SDS011;32083;47.360;9.650;2022-11-22T12:39:49;5.90;;;2.72;;
46377;SDS011;32083;47.360;9.650;2022-11-22T12:42:18;3.33;;;1.60;;
46377;SDS011;32083;47.360;9.650;2022-11-22T12:44:51;4.97;;;2.00;;
46377;SDS011;32083;47.360;9.650;2022-11-22T12:47:28;3.15;;;1.20;;
46377;SDS011;32083;47.360;9.650;2022-11-22T12:50:19;2.65;;;1.10;;
46377;SDS011;32083;47.360;9.650;2022-11-22T12:53:02;4.15;;;1.17;;
46377;SDS011;32083;47.360;9.650;2022-11-22T12:55:58;2.88;;;1.35;;
46377;SDS011;32083;47.360;9.650;2022-11-22T12:58:31;5.20;;;1.10;;
46377;SDS011;32083;47.360;9.650;2022-11-22T13:04:02;3.83;;;1.10;;
46377;SDS011;32083;47.360;9.650;2022-11-22T13:06:55;4.38;;;0.95;;
46377;SDS011;32083;47.360;9.650;2022-11-22T13:09:30;1.50;;;0.90;;
46377;SDS011;32083;47.360;9.650;2022-11-22T13:12:01;4.53;;;1.20;;
46377;SDS011;32083;47.360;9.650;2022-11-22T13:17:09;3.97;;;1.80;;
46377;SDS011;32083;47.360;9.650;2022-11-22T13:19:40;4.00;;;1.40;;
46377;SDS011;32083;47.360;9.650;2022-11-22T13:27:37;3.28;;;1.65;;
46377;SDS011;32083;47.360;9.650;2022-11-22T13:30:15;5.38;;;1.42;;
46377;SDS011;32083;47.360;9.650;2022-11-22T13:32:42;4.57;;;1.10;;
46377;SDS011;32083;47.360;9.650;2022-11-22T13:37:40;3.53;;;1.33;;
46377;SDS011;32083;47.360;9.650;2022-11-22T13:42:41;5.47;;;1.50;;
46377;SDS011;32083;47.360;9.650;2022-11-22T13:45:21;4.07;;;1.30;;
46377;SDS011;32083;47.360;9.650;2022-11-22T13:47:47;3.30;;;1.52;;
46377;SDS011;32083;47.360;9.650;2022-11-22T13:53:21;5.78;;;1.48;;
46377;SDS011;32083;47.360;9.650;2022-11-22T13:55:49;3.90;;;1.15;;
46377;SDS011;32083;47.360;9.650;2022-11-22T14:05:50;3.55;;;2.20;;
46377;SDS011;32083;47.360;9.650;2022-11-22T14:08:34;5.38;;;1.73;;
46377;SDS011;32083;47.360;9.650;2022-11-22T14:11:09;4.18;;;1.50;;
46377;SDS011;32083;47.360;9.650;2022-11-22T14:16:46;4.05;;;1.92;;
46377;SDS011;32083;47.360;9.650;2022-11-22T14:31:40;22.30;;;15.05;;
46377;SDS011;32083;47.360;9.650;2022-11-22T14:50:55;5.70;;;4.13;;
46377;SDS011;32083;47.360;9.650;2022-11-22T14:56:02;8.63;;;6.30;;
46377;SDS011;32083;47.360;9.650;2022-11-22T14:58:32;4.43;;;3.22;;
46377;SDS011;32083;47.360;9.650;2022-11-22T15:01:20;5.95;;;3.88;;
46377;SDS011;32083;47.360;9.650;2022-11-22T15:15:35;5.47;;;3.63;;
46377;SDS011;32083;47.360;9.650;2022-11-22T15:20:45;4.88;;;3.30;;
46377;SDS011;32083;47.360;9.650;2022-11-22T15:23:30;5.88;;;4.47;;
46377;SDS011;32083;47.360;9.650;2022-11-22T15:26:01;5.55;;;3.83;;
46377;SDS011;32083;47.360;9.650;2022-11-22T15:28:29;6.97;;;4.70;;
46377;SDS011;32083;47.360;9.650;2022-11-22T15:30:56;6.78;;;5.30;;
46377;SDS011;32083;47.360;9.650;2022-11-22T15:33:29;8.23;;;5.35;;
46377;SDS011;32083;47.360;9.650;2022-11-22T15:39:00;9.90;;;5.03;;
46377;SDS011;32083;47.360;9.650;2022-11-22T15:41:27;9.55;;;3.92;;
46377;SDS011;32083;47.360;9.650;2022-11-22T15:43:55;11.00;;;3.70;;
46377;SDS011;32083;47.360;9.650;2022-11-22T15:46:23;7.65;;;3.47;;
46377;SDS011;32083;47.360;9.650;2022-11-22T15:48:51;5.15;;;3.58;;
46377;SDS011;32083;47.360;9.650;2022-11-22T15:51:29;5.55;;;4.93;;
46377;SDS011;32083;47.360;9.650;2022-11-22T15:58:57;9.18;;;4.28;;
46377;SDS011;32083;47.360;9.650;2022-11-22T16:01:23;7.75;;;3.10;;
46377;SDS011;32083;47.360;9.650;2022-11-22T16:03:50;6.28;;;3.17;;
46377;SDS011;32083;47.360;9.650;2022-11-22T16:06:23;6.57;;;3.95;;
46377;SDS011;32083;47.360;9.650;2022-11-22T16:08:51;10.35;;;4.80;;
46377;SDS011;32083;47.360;9.650;2022-11-22T16:11:41;4.65;;;3.60;;
46377;SDS011;32083;47.360;9.650;2022-11-22T16:17:25;5.78;;;3.90;;
46377;SDS011;32083;47.360;9.650;2022-11-22T16:19:52;8.43;;;3.90;;
46377;SDS011;32083;47.360;9.650;2022-11-22T16:22:28;11.27;;;4.00;;
46377;SDS011;32083;47.360;9.650;2022-11-22T16:27:55;8.40;;;6.13;;
46377;SDS011;32083;47.360;9.650;2022-11-22T16:30:21;13.40;;;6.32;;
46377;SDS011;32083;47.360;9.650;2022-11-22T16:32:47;15.20;;;7.30;;
46377;SDS011;32083;47.360;9.650;2022-11-22T16:35:14;12.98;;;8.68;;
46377;SDS011;32083;47.360;9.650;2022-11-22T16:37:42;10.90;;;7.10;;
46377;SDS011;32083;47.360;9.650;2022-11-22T16:40:09;12.20;;;7.65;;
46377;SDS011;32083;47.360;9.650;2022-11-22T16:42:38;13.57;;;6.97;;
46377;SDS011;32083;47.360;9.650;2022-11-22T16:45:10;9.68;;;7.65;;
46377;SDS011;32083;47.360;9.650;2022-11-22T16:47:43;11.93;;;7.63;;
46377;SDS011;32083;47.360;9.650;2022-11-22T16:50:12;10.68;;;6.55;;
46377;SDS011;32083;47.360;9.650;2022-11-22T16:52:40;24.33;;;14.35;;
46377;SDS011;32083;47.360;9.650;2022-11-22T16:55:15;14.07;;;10.63;;
46377;SDS011;32083;47.360;9.650;2022-11-22T16:57:42;10.63;;;7.07;;
46377;SDS011;32083;47.360;9.650;2022-11-22T17:00:08;10.30;;;6.60;;
46377;SDS011;32083;47.360;9.650;2022-11-22T17:02:36;8.85;;;7.43;;
46377;SDS011;32083;47.360;9.650;2022-11-22T17:05:05;9.88;;;6.75;;
46377;SDS011;32083;47.360;9.650;2022-11-22T17:07:35;10.32;;;7.07;;
46377;SDS011;32083;47.360;9.650;2022-11-22T17:10:01;13.00;;;6.97;;
46377;SDS011;32083;47.360;9.650;2022-11-22T17:12:27;8.88;;;6.63;;
46377;SDS011;32083;47.360;9.650;2022-11-22T17:14:53;10.35;;;8.20;;
46377;SDS011;32083;47.360;9.650;2022-11-22T17:17:20;22.20;;;18.15;;
46377;SDS011;32083;47.360;9.650;2022-11-22T17:19:46;25.13;;;19.52;;
46377;SDS011;32083;47.360;9.650;2022-11-22T17:22:15;18.63;;;15.27;;
46377;SDS011;32083;47.360;9.650;2022-11-22T17:24:42;25.98;;;20.17;;
46377;SDS011;32083;47.360;9.650;2022-11-22T17:27:12;20.23;;;12.15;;
46377;SDS011;32083;47.360;9.650;2022-11-22T17:29:38;12.05;;;10.27;;
46377;SDS011;32083;47.360;9.650;2022-11-22T17:32:05;13.65;;;10.00;;
46377;SDS011;32083;47.360;9.650;2022-11-22T17:34:33;15.10;;;12.05;;
46377;SDS011;32083;47.360;9.650;2022-11-22T17:36:59;13.80;;;10.68;;
46377;SDS011;32083;47.360;9.650;2022-11-22T17:39:26;12.18;;;9.57;;
46377;SDS011;32083;47.360;9.650;2022-11-22T17:41:52;11.90;;;10.07;;
46377;SDS011;32083;47.360;9.650;2022-11-22T17:44:18;12.77;;;9.90;;
46377;SDS011;32083;47.360;9.650;2022-11-22T17:46:44;36.00;;;22.00;;
46377;SDS011;32083;47.360;9.650;2022-11-22T17:49:12;16.60;;;11.52;;
46377;SDS011;32083;47.360;9.650;2022-11-22T17:51:38;14.55;;;10.98;;
46377;SDS011;32083;47.360;9.650;2022-11-22T17:54:04;17.52;;;13.48;;
46377;SDS011;32083;47.360;9.650;2022-11-22T17:56:32;11.45;;;8.43;;
46377;SDS011;32083;47.360;9.650;2022-11-22T17:59:00;8.07;;;5.53;;
46377;SDS011;32083;47.360;9.650;2022-11-22T18:01:26;9.45;;;5.20;;
46377;SDS011;32083;47.360;9.650;2022-11-22T18:03:52;11.77;;;8.20;;
46377;SDS011;32083;47.360;9.650;2022-11-22T18:06:18;10.68;;;6.43;;
46377;SDS011;32083;47.360;9.650;2022-11-22T18:08:45;10.13;;;6.22;;
46377;SDS011;32083;47.360;9.650;2022-11-22T18:11:12;8.40;;;6.97;;
46377;SDS011;32083;47.360;9.650;2022-11-22T18:13:39;7.40;;;5.72;;
46377;SDS011;32083;47.360;9.650;2022-11-22T18:16:06;11.05;;;7.80;;
46377;SDS011;32083;47.360;9.650;2022-11-22T18:18:36;8.70;;;6.50;;
46377;SDS011;32083;47.360;9.650;2022-11-22T18:21:02;6.93;;;6.18;;
46377;SDS011;32083;47.360;9.650;2022-11-22T18:23:31;10.07;;;7.22;;
46377;SDS011;32083;47.360;9.650;2022-11-22T18:25:59;10.63;;;7.18;;
46377;SDS011;32083;47.360;9.650;2022-11-22T18:28:26;17.15;;;13.90;;
46377;SDS011;32083;47.360;9.650;2022-11-22T18:30:52;16.00;;;11.25;;
46377;SDS011;32083;47.360;9.650;2022-11-22T18:33:18;13.80;;;11.07;;
46377;SDS011;32083;47.360;9.650;2022-11-22T18:35:44;12.18;;;8.40;;
46377;SDS011;32083;47.360;9.650;2022-11-22T18:38:10;10.00;;;6.85;;
46377;SDS011;32083;47.360;9.650;2022-11-22T18:40:43;7.82;;;5.90;;
46377;SDS011;32083;47.360;9.650;2022-11-22T18:43:10;14.95;;;7.88;;
46377;SDS011;32083;47.360;9.650;2022-11-22T18:45:36;15.07;;;10.02;;
46377;SDS011;32083;47.360;9.650;2022-11-22T18:48:03;14.23;;;10.00;;
46377;SDS011;32083;47.360;9.650;2022-11-22T18:50:30;27.55;;;16.88;;
46377;SDS011;32083;47.360;9.650;2022-11-22T18:52:58;39.88;;;25.67;;
46377;SDS011;32083;47.360;9.650;2022-11-22T18:55:25;27.17;;;16.42;;
46377;SDS011;32083;47.360;9.650;2022-11-22T18:57:51;15.02;;;12.90;;
46377;SDS011;32083;47.360;9.650;2022-11-22T19:00:18;13.07;;;8.75;;
46377;SDS011;32083;47.360;9.650;2022-11-22T19:02:45;11.00;;;7.35;;
46377;SDS011;32083;47.360;9.650;2022-11-22T19:05:11;8.85;;;7.60;;
46377;SDS011;32083;47.360;9.650;2022-11-22T19:07:37;9.63;;;8.50;;
46377;SDS011;32083;47.360;9.650;2022-11-22T19:10:03;11.73;;;8.80;;
46377;SDS011;32083;47.360;9.650;2022-11-22T19:12:30;11.82;;;8.77;;
46377;SDS011;32083;47.360;9.650;2022-11-22T19:14:56;13.63;;;11.38;;
46377;SDS011;32083;47.360;9.650;2022-11-22T19:17:22;11.45;;;8.57;;
46377;SDS011;32083;47.360;9.650;2022-11-22T19:19:48;9.05;;;7.93;;
46377;SDS011;32083;47.360;9.650;2022-11-22T19:22:22;9.68;;;6.38;;
46377;SDS011;32083;47.360;9.650;2022-11-22T19:24:48;8.13;;;6.60;;
46377;SDS011;32083;47.360;9.650;2022-11-22T19:27:14;7.90;;;6.38;;
46377;SDS011;32083;47.360;9.650;2022-11-22T19:29:40;13.50;;;7.47;;
46377;SDS011;32083;47.360;9.650;2022-11-22T19:32:06;11.05;;;8.70;;
46377;SDS011;32083;47.360;9.650;2022-11-22T19:34:32;11.18;;;9.98;;
46377;SDS011;32083;47.360;9.650;2022-11-22T19:36:58;11.52;;;10.13;;
46377;SDS011;32083;47.360;9.650;2022-11-22T19:39:24;12.15;;;8.55;;
46377;SDS011;32083;47.360;9.650;2022-11-22T19:41:51;10.23;;;9.02;;
46377;SDS011;32083;47.360;9.650;2022-11-22T19:44:17;10.95;;;7.82;;
46377;SDS011;32083;47.360;9.650;2022-11-22T19:46:43;13.35;;;8.38;;
46377;SDS011;32083;47.360;9.650;2022-11-22T19:49:09;8.32;;;7.32;;
46377;SDS011;32083;47.360;9.650;2022-11-22T19:51:35;60.25;;;36.92;;
46377;SDS011;32083;47.360;9.650;2022-11-22T19:54:03;15.68;;;10.13;;
46377;SDS011;32083;47.360;9.650;2022-11-22T19:56:31;53.38;;;32.63;;
46377;SDS011;32083;47.360;9.650;2022-11-22T19:58:59;9.20;;;7.30;;
46377;SDS011;32083;47.360;9.650;2022-11-22T20:01:28;7.40;;;5.53;;
46377;SDS011;32083;47.360;9.650;2022-11-22T20:03:56;7.55;;;5.72;;
46377;SDS011;32083;47.360;9.650;2022-11-22T20:06:24;7.80;;;6.38;;
46377;SDS011;32083;47.360;9.650;2022-11-22T20:08:50;13.05;;;8.73;;
46377;SDS011;32083;47.360;9.650;2022-11-22T20:11:18;13.05;;;11.07;;
46377;SDS011;32083;47.360;9.650;2022-11-22T20:13:46;11.18;;;8.98;;
46377;SDS011;32083;47.360;9.650;2022-11-22T20:16:14;16.23;;;11.63;;
46377;SDS011;32083;47.360;9.650;2022-11-22T20:18:46;11.43;;;10.27;;
46377;SDS011;32083;47.360;9.650;2022-11-22T20:21:12;9.93;;;8.93;;
46377;SDS011;32083;47.360;9.650;2022-11-22T20:23:38;11.00;;;9.15;;
46377;SDS011;32083;47.360;9.650;2022-11-22T20:26:08;13.70;;;11.93;;
46377;SDS011;32083;47.360;9.650;2022-11-22T20:28:39;12.88;;;11.30;;
46377;SDS011;32083;47.360;9.650;2022-11-22T20:31:10;9.57;;;7.70;;
46377;SDS011;32083;47.360;9.650;2022-11-22T20:33:39;10.13;;;7.45;;
46377;SDS011;32083;47.360;9.650;2022-11-22T20:36:10;9.00;;;5.05;;
46377;SDS011;32083;47.360;9.650;2022-11-22T20:38:43;6.20;;;5.30;;
46377;SDS011;32083;47.360;9.650;2022-11-22T20:41:10;6.97;;;4.10;;
46377;SDS011;32083;47.360;9.650;2022-11-22T20:43:40;6.60;;;4.18;;
46377;SDS011;32083;47.360;9.650;2022-11-22T20:46:08;6.05;;;4.30;;
46377;SDS011;32083;47.360;9.650;2022-11-22T20:48:35;8.23;;;5.00;;
46377;SDS011;32083;47.360;9.650;2022-11-22T20:51:04;5.85;;;4.57;;
46377;SDS011;32083;47.360;9.650;2022-11-22T20:53:32;9.43;;;6.10;;
46377;SDS011;32083;47.360;9.650;2022-11-22T20:56:01;10.40;;;7.22;;
46377;SDS011;32083;47.360;9.650;2022-11-22T20:58:38;6.65;;;5.13;;
46377;SDS011;32083;47.360;9.650;2022-11-22T21:14:50;16.05;;;9.88;;
46377;SDS011;32083;47.360;9.650;2022-11-22T21:17:16;18.40;;;12.23;;
46377;SDS011;32083;47.360;9.650;2022-11-22T21:19:42;8.20;;;6.40;;
46377;SDS011;32083;47.360;9.650;2022-11-22T21:22:08;7.95;;;5.90;;
46377;SDS011;32083;47.360;9.650;2022-11-22T21:24:34;7.07;;;5.95;;
46377;SDS011;32083;47.360;9.650;2022-11-22T21:27:01;8.95;;;6.38;;
46377;SDS011;32083;47.360;9.650;2022-11-22T21:29:27;8.23;;;5.80;;
46377;SDS011;32083;47.360;9.650;2022-11-22T21:31:53;8.38;;;6.10;;
46377;SDS011;32083;47.360;9.650;2022-11-22T21:34:19;8.07;;;5.75;;
46377;SDS011;32083;47.360;9.650;2022-11-22T21:36:45;9.82;;;5.60;;
46377;SDS011;32083;47.360;9.650;2022-11-22T21:39:11;7.57;;;5.80;;
46377;SDS011;32083;47.360;9.650;2022-11-22T21:41:37;8.27;;;7.47;;
46377;SDS011;32083;47.360;9.650;2022-11-22T21:44:03;9.88;;;7.72;;
46377;SDS011;32083;47.360;9.650;2022-11-22T21:46:29;6.78;;;5.75;;
46377;SDS011;32083;47.360;9.650;2022-11-22T21:48:55;7.10;;;4.93;;
46377;SDS011;32083;47.360;9.650;2022-11-22T21:51:21;8.63;;;5.25;;
46377;SDS011;32083;47.360;9.650;2022-11-22T21:53:49;8.13;;;6.82;;
46377;SDS011;32083;47.360;9.650;2022-11-22T21:56:15;15.27;;;7.88;;
46377;SDS011;32083;47.360;9.650;2022-11-22T21:58:41;5.80;;;4.40;;
46377;SDS011;32083;47.360;9.650;2022-11-22T22:01:07;6.07;;;3.72;;
46377;SDS011;32083;47.360;9.650;2022-11-22T22:03:34;4.78;;;4.05;;
46377;SDS011;32083;47.360;9.650;2022-11-22T22:06:00;5.40;;;3.58;;
46377;SDS011;32083;47.360;9.650;2022-11-22T22:08:26;3.75;;;2.90;;
46377;SDS011;32083;47.360;9.650;2022-11-22T22:10:53;5.32;;;3.65;;
46377;SDS011;32083;47.360;9.650;2022-11-22T22:13:22;5.65;;;3.63;;
46377;SDS011;32083;47.360;9.650;2022-11-22T22:15:52;5.63;;;3.28;;
46377;SDS011;32083;47.360;9.650;2022-11-22T22:18:20;6.55;;;3.58;;
46377;SDS011;32083;47.360;9.650;2022-11-22T22:20:46;5.00;;;3.40;;
46377;SDS011;32083;47.360;9.650;2022-11-22T22:23:12;4.13;;;3.22;;
46377;SDS011;32083;47.360;9.650;2022-11-22T22:25:39;3.92;;;3.33;;
46377;SDS011;32083;47.360;9.650;2022-11-22T22:28:05;5.55;;;2.95;;
46377;SDS011;32083;47.360;9.650;2022-11-22T22:30:31;4.32;;;2.47;;
46377;SDS011;32083;47.360;9.650;2022-11-22T22:32:57;6.72;;;3.67;;
46377;SDS011;32083;47.360;9.650;2022-11-22T22:35:23;3.92;;;2.90;;
46377;SDS011;32083;47.360;9.650;2022-11-22T22:37:49;5.63;;;3.28;;
46377;SDS011;32083;47.360;9.650;2022-11-22T22:40:16;4.82;;;3.03;;
46377;SDS011;32083;47.360;9.650;2022-11-22T22:42:42;4.28;;;3.33;;
46377;SDS011;32083;47.360;9.650;2022-11-22T22:45:08;5.88;;;3.20;;
46377;SDS011;32083;47.360;9.650;2022-11-22T22:47:35;4.65;;;3.17;;
46377;SDS011;32083;47.360;9.650;2022-11-22T22:50:00;4.20;;;3.70;;
46377;SDS011;32083;47.360;9.650;2022-11-22T22:52:26;5.88;;;3.45;;
46377;SDS011;32083;47.360;9.650;2022-11-22T22:54:52;11.13;;;5.82;;